Time;durP1;ratioP1;P1;durP2;ratioP2;P2;SDS_P1;SDS_P2;PMS_P1;PMS_P2;Temp;Humidity;BMP_temperature;BMP_pressure;BME280_temperature;BME280_humidity;BME280_pressure;Samples;Min_cycle;Max_cycle;Signal;HPM_P1;HPM_P2
2020/12/06 00:01:45;;;;;;;22.00;11.27;;;17.20;47.20;;;;;;5070692;28;20025;-71
2020/12/06 00:04:18;;;;;;;23.48;11.60;;;17.00;48.00;;;;;;5073447;28;20439;-70
2020/12/06 00:06:45;;;;;;;22.50;11.30;;;16.90;49.00;;;;;;5076129;28;20021;-70
2020/12/06 00:09:12;;;;;;;27.58;12.50;;;16.80;49.00;;;;;;5073190;28;20020;-71
2020/12/06 00:11:38;;;;;;;24.55;10.90;;;16.60;49.00;;;;;;5077162;28;20446;-72
2020/12/06 00:14:05;;;;;;;18.98;10.75;;;16.30;49.70;;;;;;5074503;28;20412;-70
2020/12/06 00:16:31;;;;;;;26.38;13.05;;;16.40;50.50;;;;;;5075858;28;20016;-70
2020/12/06 00:18:57;;;;;;;21.45;10.55;;;16.30;50.30;;;;;;5075725;28;20095;-70
2020/12/06 00:21:24;;;;;;;21.25;11.88;;;16.30;51.20;;;;;;5071041;28;20472;-70
2020/12/06 00:23:51;;;;;;;16.65;10.60;;;16.20;50.50;;;;;;5075726;28;20016;-70
2020/12/06 00:26:22;;;;;;;22.70;10.32;;;16.20;50.60;;;;;;5076864;28;20021;-70
2020/12/06 00:28:49;;;;;;;22.63;10.18;;;16.20;50.50;;;;;;5074980;28;20362;-70
2020/12/06 00:31:16;;;;;;;20.27;10.13;;;16.10;49.90;;;;;;5075024;28;20040;-69
2020/12/06 00:33:42;;;;;;;15.80;8.18;;;16.00;50.00;;;;;;5071926;28;20129;-71
2020/12/06 00:36:10;;;;;;;26.23;10.43;;;15.90;49.70;;;;;;5071154;28;20036;-70
2020/12/06 00:38:37;;;;;;;18.75;9.18;;;15.70;50.10;;;;;;5071432;28;20027;-70
2020/12/06 00:41:04;;;;;;;17.30;8.88;;;15.70;50.00;;;;;;5069013;28;20066;-70
2020/12/06 00:43:31;;;;;;;19.27;9.65;;;15.80;49.70;;;;;;5067230;28;20336;-70
2020/12/06 00:45:58;;;;;;;14.35;7.38;;;15.80;49.80;;;;;;5075389;28;20025;-70
2020/12/06 00:48:24;;;;;;;22.48;8.90;;;15.70;49.90;;;;;;5070314;28;20021;-70
2020/12/06 00:50:51;;;;;;;21.40;9.15;;;15.50;50.10;;;;;;5075571;28;20067;-70
2020/12/06 00:53:17;;;;;;;16.35;7.72;;;15.30;50.50;;;;;;5067954;28;20048;-70
2020/12/06 00:55:43;;;;;;;18.63;9.18;;;15.40;50.20;;;;;;5062801;28;20079;-70
2020/12/06 00:58:10;;;;;;;21.55;8.80;;;15.40;50.20;;;;;;5073179;28;20032;-70
2020/12/06 01:00:36;;;;;;;24.00;9.20;;;15.30;50.30;;;;;;5067883;28;20527;-70
2020/12/06 01:03:03;;;;;;;15.80;7.07;;;15.30;50.10;;;;;;5073626;28;20472;-70
2020/12/06 01:05:29;;;;;;;10.90;6.38;;;15.20;50.20;;;;;;5071256;28;20057;-70
2020/12/06 01:07:56;;;;;;;13.45;6.78;;;15.10;50.60;;;;;;5062094;28;20035;-70
2020/12/06 01:10:25;;;;;;;19.63;10.00;;;15.00;50.60;;;;;;5075393;28;20035;-70
2020/12/06 01:12:52;;;;;;;22.55;8.70;;;14.70;51.50;;;;;;5064634;28;20032;-70
2020/12/06 01:15:18;;;;;;;16.02;7.60;;;14.60;52.10;;;;;;5067232;28;20024;-70
2020/12/06 01:17:45;;;;;;;13.02;6.22;;;14.70;51.80;;;;;;5073801;28;20024;-70
2020/12/06 01:20:12;;;;;;;23.48;7.72;;;14.80;51.40;;;;;;5080825;28;20029;-70
2020/12/06 01:22:38;;;;;;;19.88;9.23;;;14.70;51.50;;;;;;5072157;28;20185;-70
2020/12/06 01:25:06;;;;;;;12.02;7.22;;;14.80;51.60;;;;;;5065314;28;20465;-69
2020/12/06 01:27:32;;;;;;;15.70;7.97;;;14.70;51.30;;;;;;5071199;28;20469;-70
2020/12/06 01:29:59;;;;;;;24.25;10.95;;;14.70;51.20;;;;;;5071535;28;20028;-70
2020/12/06 01:32:25;;;;;;;12.27;7.40;;;14.70;51.30;;;;;;5091161;28;20025;-70
2020/12/06 01:34:52;;;;;;;19.25;7.45;;;14.70;51.10;;;;;;5083677;28;20032;-70
2020/12/06 01:37:18;;;;;;;17.25;8.00;;;14.70;51.10;;;;;;5064579;28;20029;-70
2020/12/06 01:39:45;;;;;;;15.32;6.97;;;14.60;51.30;;;;;;5072380;28;20033;-70
2020/12/06 01:42:11;;;;;;;14.10;7.63;;;14.50;51.10;;;;;;5068104;28;20021;-71
2020/12/06 01:44:38;;;;;;;12.90;6.13;;;14.40;51.20;;;;;;5064729;28;20020;-71
2020/12/06 01:47:04;;;;;;;21.48;10.75;;;14.40;51.00;;;;;;5058233;28;20032;-70
2020/12/06 01:49:40;;;;;;;10.93;6.53;;;14.30;51.10;;;;;;5063602;28;20038;-70
2020/12/06 01:52:08;;;;;;;20.92;9.77;;;14.20;51.20;;;;;;5065831;28;20028;-70
2020/12/06 01:54:37;;;;;;;23.58;9.93;;;14.10;51.80;;;;;;5064355;28;20044;-70
2020/12/06 01:57:06;;;;;;;25.75;11.90;;;13.90;52.20;;;;;;5063470;28;20366;-70
2020/12/06 01:59:33;;;;;;;23.45;8.63;;;13.70;51.60;;;;;;5063577;28;20032;-70
2020/12/06 02:02:01;;;;;;;20.02;8.90;;;13.80;51.00;;;;;;5064419;28;20933;-70
2020/12/06 02:04:29;;;;;;;14.23;7.20;;;13.70;51.50;;;;;;5066087;28;20021;-70
2020/12/06 02:07:00;;;;;;;9.98;6.50;;;13.50;51.70;;;;;;5065440;28;20024;-71
2020/12/06 02:09:31;;;;;;;10.23;6.88;;;13.40;51.90;;;;;;5062606;28;20525;-70
2020/12/06 02:11:58;;;;;;;12.13;6.70;;;13.30;51.90;;;;;;5061084;28;20029;-70
2020/12/06 02:14:25;;;;;;;20.42;7.75;;;13.30;51.40;;;;;;5062211;28;20021;-70
2020/12/06 02:16:55;;;;;;;9.73;6.68;;;13.30;51.90;;;;;;5062781;28;21326;-70
2020/12/06 02:19:22;;;;;;;12.93;6.68;;;13.10;52.10;;;;;;5065724;28;20040;-70
2020/12/06 02:21:48;;;;;;;9.70;6.25;;;13.00;52.10;;;;;;5058496;28;20403;-70
2020/12/06 02:24:17;;;;;;;16.90;6.90;;;12.90;52.00;;;;;;5076079;28;20085;-70
2020/12/06 02:26:46;;;;;;;21.58;8.00;;;12.80;52.20;;;;;;5094787;28;20020;-70
2020/12/06 02:29:13;;;;;;;16.30;8.25;;;12.70;52.00;;;;;;5074952;28;20021;-70
2020/12/06 02:31:40;;;;;;;16.13;7.00;;;12.70;51.40;;;;;;5059312;28;20029;-70
2020/12/06 02:34:08;;;;;;;9.05;5.53;;;12.60;51.70;;;;;;5071984;28;20323;-70
2020/12/06 02:36:35;;;;;;;17.90;7.57;;;12.40;51.60;;;;;;5071949;28;20024;-70
2020/12/06 02:39:04;;;;;;;14.82;7.05;;;12.40;51.80;;;;;;5071130;28;20028;-70
2020/12/06 02:41:40;;;;;;;13.63;7.28;;;12.30;51.90;;;;;;5065210;28;20043;-69
2020/12/06 02:44:07;;;;;;;14.25;7.10;;;12.20;52.00;;;;;;5075771;28;20064;-70
2020/12/06 02:46:35;;;;;;;14.57;7.20;;;12.10;52.10;;;;;;5068487;28;20046;-70
2020/12/06 02:49:01;;;;;;;13.75;6.75;;;12.00;52.50;;;;;;5072782;28;20025;-70
2020/12/06 02:51:28;;;;;;;13.65;9.13;;;11.90;52.50;;;;;;5065714;28;20029;-70
2020/12/06 02:53:54;;;;;;;18.77;8.85;;;11.90;51.50;;;;;;5073023;28;20071;-70
2020/12/06 02:56:31;;;;;;;15.27;7.78;;;12.00;51.50;;;;;;5073180;28;20454;-70
2020/12/06 02:58:57;;;;;;;21.23;8.13;;;12.00;51.70;;;;;;5074478;28;20021;-70
2020/12/06 03:01:31;;;;;;;11.98;7.95;;;12.00;52.50;;;;;;5063279;28;20020;-71
2020/12/06 03:03:58;;;;;;;13.93;7.43;;;11.80;53.00;;;;;;5062277;28;20067;-70
2020/12/06 03:06:25;;;;;;;15.50;9.27;;;11.70;52.90;;;;;;5068267;28;20021;-70
2020/12/06 03:08:51;;;;;;;10.98;7.95;;;11.70;52.80;;;;;;5063413;28;20032;-70
2020/12/06 03:11:18;;;;;;;13.60;7.30;;;11.70;52.10;;;;;;5068466;28;20032;-70
2020/12/06 03:13:44;;;;;;;15.50;8.35;;;11.60;52.90;;;;;;5070009;28;20032;-70
2020/12/06 03:16:11;;;;;;;12.48;8.02;;;11.60;53.20;;;;;;5059772;28;20447;-70
2020/12/06 03:18:37;;;;;;;12.20;7.72;;;11.60;52.20;;;;;;5056878;28;20037;-70
2020/12/06 03:21:04;;;;;;;14.80;6.80;;;11.30;55.10;;;;;;5071019;28;20095;-70
2020/12/06 03:23:30;;;;;;;21.48;10.50;;;11.20;54.90;;;;;;5077582;28;20480;-70
2020/12/06 03:25:57;;;;;;;13.40;8.15;;;11.20;54.80;;;;;;5077041;28;20021;-69
2020/12/06 03:28:23;;;;;;;15.15;9.35;;;11.20;54.80;;;;;;5070140;28;20123;-69
2020/12/06 03:30:50;;;;;;;12.50;8.23;;;11.20;54.60;;;;;;5089865;28;20090;-69
2020/12/06 03:33:16;;;;;;;23.02;9.52;;;11.20;54.80;;;;;;5077353;28;20029;-69
2020/12/06 03:35:42;;;;;;;21.52;8.90;;;11.20;54.90;;;;;;5066114;28;20045;-70
2020/12/06 03:38:09;;;;;;;18.75;8.95;;;11.30;54.20;;;;;;5072963;28;20031;-70
2020/12/06 03:40:35;;;;;;;16.92;10.05;;;11.30;55.20;;;;;;5072929;28;20359;-71
2020/12/06 03:43:02;;;;;;;17.00;10.25;;;11.40;53.40;;;;;;5059152;28;20031;-70
2020/12/06 03:45:29;;;;;;;20.52;10.63;;;11.60;54.60;;;;;;5071651;28;20556;-71
2020/12/06 03:47:55;;;;;;;23.15;10.70;;;11.80;53.70;;;;;;5078093;28;20035;-71
2020/12/06 03:50:23;;;;;;;28.90;12.85;;;11.90;53.60;;;;;;5075496;28;20509;-71
2020/12/06 03:52:50;;;;;;;17.95;11.55;;;12.00;55.10;;;;;;5075622;28;20116;-71
2020/12/06 03:55:17;;;;;;;19.52;10.48;;;11.90;53.60;;;;;;5076151;28;20111;-71
2020/12/06 03:57:43;;;;;;;25.02;11.55;;;11.80;54.00;;;;;;5078035;28;20067;-71
2020/12/06 04:00:10;;;;;;;16.55;9.90;;;11.80;55.10;;;;;;5076170;28;20089;-71
2020/12/06 04:02:36;;;;;;;16.45;10.85;;;11.70;55.30;;;;;;5071544;28;20028;-71
2020/12/06 04:05:04;;;;;;;22.08;12.88;;;11.60;56.50;;;;;;5071267;28;20020;-71
2020/12/06 04:07:30;;;;;;;23.38;12.45;;;11.30;56.70;;;;;;5062132;28;20020;-71
2020/12/06 04:09:56;;;;;;;25.63;14.07;;;11.30;57.40;;;;;;5065296;28;20035;-71
2020/12/06 04:12:23;;;;;;;27.10;13.15;;;11.30;57.60;;;;;;5067661;28;20035;-71
2020/12/06 04:14:49;;;;;;;19.45;12.85;;;11.40;56.40;;;;;;5070909;28;20029;-71
2020/12/06 04:17:16;;;;;;;20.90;11.38;;;11.50;55.20;;;;;;5067239;28;20058;-71
2020/12/06 04:19:42;;;;;;;17.23;11.30;;;11.50;56.20;;;;;;5070399;28;20155;-71
2020/12/06 04:22:09;;;;;;;17.42;9.57;;;11.40;56.40;;;;;;5071628;28;20021;-70
2020/12/06 04:24:35;;;;;;;16.40;9.45;;;11.40;56.10;;;;;;5074356;28;20035;-69
2020/12/06 04:27:02;;;;;;;21.33;12.55;;;11.40;55.80;;;;;;5072473;28;20089;-70
2020/12/06 04:29:28;;;;;;;20.08;10.95;;;11.30;55.00;;;;;;5073273;28;20032;-69
2020/12/06 04:31:55;;;;;;;26.52;13.35;;;11.40;55.90;;;;;;5074807;28;20100;-69
2020/12/06 04:34:21;;;;;;;20.60;10.52;;;11.40;55.00;;;;;;5068414;28;20037;-70
2020/12/06 04:36:48;;;;;;;19.13;13.18;;;11.30;55.50;;;;;;5069415;28;20028;-69
2020/12/06 04:39:14;;;;;;;17.88;9.27;;;11.20;55.60;;;;;;5071040;28;20041;-70
2020/12/06 04:41:41;;;;;;;21.00;12.77;;;11.20;55.70;;;;;;5075713;28;20111;-70
2020/12/06 04:44:08;;;;;;;26.95;11.95;;;11.10;55.00;;;;;;5085504;28;20054;-70
2020/12/06 04:46:39;;;;;;;17.75;10.13;;;11.10;55.40;;;;;;5074414;28;20350;-70
2020/12/06 04:49:05;;;;;;;15.82;9.88;;;11.00;55.90;;;;;;5074747;28;20021;-69
2020/12/06 04:51:55;;;;;;;25.25;11.35;;;11.00;56.10;;;;;;5074628;28;20474;-69
2020/12/06 04:54:30;;;;;;;22.45;11.77;;;11.10;55.70;;;;;;5072273;28;20028;-70
2020/12/06 04:57:03;;;;;;;15.57;9.93;;;11.20;55.30;;;;;;5073594;28;20035;-69
2020/12/06 04:59:29;;;;;;;22.45;9.32;;;11.30;55.90;;;;;;5060806;28;20113;-71
2020/12/06 05:02:04;;;;;;;13.55;8.23;;;11.30;56.50;;;;;;5060892;28;20036;-70
2020/12/06 05:04:34;;;;;;;20.33;11.07;;;11.30;57.70;;;;;;5068294;28;20035;-70
2020/12/06 05:07:02;;;;;;;14.55;8.82;;;11.40;57.00;;;;;;5071779;28;20059;-70
2020/12/06 05:09:33;;;;;;;15.10;10.05;;;11.40;58.20;;;;;;5069029;28;20024;-69
2020/12/06 05:12:00;;;;;;;19.73;7.80;;;11.30;57.80;;;;;;5068112;28;20056;-69
2020/12/06 05:14:26;;;;;;;15.88;9.48;;;11.30;57.70;;;;;;5064055;28;20296;-70
2020/12/06 05:16:56;;;;;;;19.50;9.65;;;11.30;58.10;;;;;;5072795;28;20473;-70
2020/12/06 05:19:28;;;;;;;17.30;10.23;;;11.30;58.60;;;;;;5073705;28;20036;-69
2020/12/06 05:21:55;;;;;;;19.77;10.27;;;11.10;58.50;;;;;;5072326;28;20032;-70
2020/12/06 05:24:22;;;;;;;20.40;9.90;;;11.20;57.90;;;;;;5072796;28;20028;-70
2020/12/06 05:26:50;;;;;;;22.88;11.48;;;11.20;58.00;;;;;;5072350;28;20033;-70
2020/12/06 05:29:17;;;;;;;17.08;12.07;;;11.00;60.00;;;;;;5068502;28;20012;-70
2020/12/06 05:31:43;;;;;;;16.60;10.85;;;11.10;58.70;;;;;;5069822;28;20029;-69
2020/12/06 05:34:10;;;;;;;12.70;9.52;;;11.00;57.90;;;;;;5069576;28;20446;-70
2020/12/06 05:36:42;;;;;;;25.40;13.65;;;11.10;58.00;;;;;;5068506;28;20029;-70
2020/12/06 05:39:08;;;;;;;24.30;13.40;;;11.10;57.70;;;;;;5072068;28;20017;-70
2020/12/06 05:41:35;;;;;;;16.30;10.02;;;11.10;57.50;;;;;;5068962;28;20031;-69
2020/12/06 05:44:04;;;;;;;16.05;10.90;;;11.00;57.70;;;;;;5073709;28;20335;-70
2020/12/06 05:46:34;;;;;;;23.02;11.43;;;11.00;58.00;;;;;;5067916;28;20035;-70
2020/12/06 05:49:03;;;;;;;19.17;10.82;;;11.00;56.50;;;;;;5067818;28;20013;-70
2020/12/06 05:51:30;;;;;;;15.05;8.75;;;11.10;56.10;;;;;;5067862;28;20028;-70
2020/12/06 05:53:58;;;;;;;14.50;8.80;;;11.00;58.00;;;;;;5071029;28;20119;-70
2020/12/06 05:56:25;;;;;;;14.35;9.00;;;10.90;58.40;;;;;;5065337;28;20058;-70
2020/12/06 05:58:52;;;;;;;13.90;8.90;;;10.90;58.50;;;;;;5073289;28;20186;-70
2020/12/06 06:01:21;;;;;;;16.15;9.75;;;10.80;58.40;;;;;;5072023;28;20036;-70
2020/12/06 06:03:49;;;;;;;16.52;8.13;;;10.70;58.30;;;;;;5069802;28;20074;-69
2020/12/06 06:06:31;;;;;;;12.70;9.35;;;10.70;58.70;;;;;;5064784;28;20027;-69
2020/12/06 06:09:02;;;;;;;13.43;7.55;;;10.60;58.60;;;;;;5071599;28;20051;-69
2020/12/06 06:11:30;;;;;;;12.32;8.05;;;10.60;58.90;;;;;;5064459;28;20024;-70
2020/12/06 06:14:02;;;;;;;9.57;7.55;;;10.60;58.60;;;;;;5071750;28;20115;-70
2020/12/06 06:16:30;;;;;;;19.27;10.10;;;10.60;58.70;;;;;;5064413;28;20063;-69
2020/12/06 06:18:58;;;;;;;19.33;9.70;;;10.60;57.30;;;;;;5070401;28;20033;-70
2020/12/06 06:21:29;;;;;;;27.13;11.57;;;10.60;56.00;;;;;;5065200;28;20032;-70
2020/12/06 06:23:59;;;;;;;23.70;12.40;;;10.60;56.30;;;;;;5078429;28;20442;-69
2020/12/06 06:26:29;;;;;;;25.77;10.05;;;10.50;57.20;;;;;;5070680;28;20025;-70
2020/12/06 06:28:55;;;;;;;16.42;10.98;;;10.40;56.70;;;;;;5068441;28;20043;-69
2020/12/06 06:31:23;;;;;;;16.92;9.82;;;10.50;57.40;;;;;;5072662;28;20424;-70
2020/12/06 06:33:50;;;;;;;19.95;9.95;;;10.50;57.20;;;;;;5073058;28;20029;-69
2020/12/06 06:36:22;;;;;;;19.38;10.43;;;10.60;57.40;;;;;;5072399;28;20516;-69
2020/12/06 06:38:51;;;;;;;19.15;10.77;;;10.40;57.00;;;;;;5073021;28;20051;-70
2020/12/06 06:41:18;;;;;;;22.42;8.75;;;10.30;57.10;;;;;;5073676;28;20504;-69
2020/12/06 06:43:46;;;;;;;17.58;9.45;;;10.20;57.60;;;;;;5063633;28;20054;-70
2020/12/06 06:46:17;;;;;;;22.65;11.55;;;10.20;57.60;;;;;;5075743;28;20028;-69
2020/12/06 06:48:50;;;;;;;21.50;10.35;;;10.30;58.40;;;;;;5073340;28;20039;-70
2020/12/06 06:51:21;;;;;;;17.75;11.57;;;10.20;58.10;;;;;;5060337;28;20047;-70
2020/12/06 06:53:48;;;;;;;17.77;9.70;;;10.20;58.60;;;;;;5074447;28;20017;-69
2020/12/06 06:56:21;;;;;;;18.30;9.82;;;10.10;59.20;;;;;;5071171;28;20039;-70
2020/12/06 06:58:49;;;;;;;18.27;10.43;;;10.00;59.50;;;;;;5061878;28;20172;-70
2020/12/06 07:01:23;;;;;;;14.50;8.75;;;9.90;60.70;;;;;;5062512;28;20053;-69
2020/12/06 07:03:54;;;;;;;18.75;10.98;;;9.90;60.00;;;;;;5071588;28;20016;-70
2020/12/06 07:06:46;;;;;;;14.10;8.30;;;9.90;59.70;;;;;;5071290;28;20063;-69
2020/12/06 07:09:22;;;;;;;15.43;10.00;;;9.90;59.90;;;;;;5089654;28;20039;-70
2020/12/06 07:11:49;;;;;;;19.60;10.95;;;9.90;59.10;;;;;;5070792;28;20037;-70
2020/12/06 07:14:15;;;;;;;17.45;12.10;;;10.00;58.00;;;;;;5077351;28;20032;-69
2020/12/06 07:16:42;;;;;;;15.27;10.70;;;10.10;58.30;;;;;;5073273;28;20025;-70
2020/12/06 07:19:09;;;;;;;22.52;12.68;;;9.90;59.40;;;;;;5076534;28;20362;-71
2020/12/06 07:21:37;;;;;;;18.27;11.65;;;9.90;58.50;;;;;;5076522;28;20077;-69
2020/12/06 07:24:04;;;;;;;18.58;10.85;;;9.90;57.90;;;;;;5068090;28;20028;-69
2020/12/06 07:26:32;;;;;;;15.95;11.15;;;9.80;59.60;;;;;;5067109;28;20028;-69
2020/12/06 07:28:59;;;;;;;12.13;10.00;;;9.70;60.20;;;;;;5085710;28;20478;-69
2020/12/06 07:31:26;;;;;;;20.85;10.50;;;9.70;60.30;;;;;;5081184;28;20043;-69
2020/12/06 07:33:53;;;;;;;14.10;8.90;;;9.70;60.60;;;;;;5074425;28;20031;-69
2020/12/06 07:36:20;;;;;;;23.33;14.50;;;9.60;61.30;;;;;;5077031;28;20047;-69
2020/12/06 07:38:47;;;;;;;15.18;11.70;;;9.80;58.90;;;;;;5081790;28;20028;-69
2020/12/06 07:41:13;;;;;;;25.55;13.98;;;9.90;59.10;;;;;;5074643;28;20327;-69
2020/12/06 07:43:40;;;;;;;23.02;12.13;;;10.00;59.30;;;;;;5078365;28;20181;-69
2020/12/06 07:46:17;;;;;;;15.20;9.43;;;10.10;60.00;;;;;;5076304;28;20107;-69
2020/12/06 07:48:44;;;;;;;20.65;10.63;;;9.90;60.70;;;;;;5073529;28;20461;-69
2020/12/06 07:51:11;;;;;;;17.65;10.48;;;9.80;61.10;;;;;;5073992;28;20104;-69
2020/12/06 07:53:44;;;;;;;16.70;9.25;;;9.80;61.80;;;;;;5068392;28;20065;-69
2020/12/06 07:56:11;;;;;;;15.15;10.27;;;9.70;60.80;;;;;;5078068;28;20036;-69
2020/12/06 07:58:44;;;;;;;12.77;8.80;;;9.70;60.60;;;;;;5064392;28;20037;-69
2020/12/06 08:01:11;;;;;;;16.45;8.18;;;9.80;60.40;;;;;;5071746;28;20039;-69
2020/12/06 08:03:38;;;;;;;14.88;8.98;;;9.70;60.50;;;;;;5071510;28;20032;-69
2020/12/06 08:06:06;;;;;;;12.40;8.85;;;9.70;60.70;;;;;;5073966;28;20031;-70
2020/12/06 08:08:37;;;;;;;15.35;9.07;;;9.70;60.60;;;;;;5071204;28;20028;-69
2020/12/06 08:11:05;;;;;;;12.80;8.07;;;9.60;62.30;;;;;;5072260;28;20077;-69
2020/12/06 08:13:31;;;;;;;13.93;8.75;;;9.60;61.50;;;;;;5067605;28;20032;-69
2020/12/06 08:16:08;;;;;;;16.80;10.55;;;9.60;61.50;;;;;;5067680;28;20024;-69
2020/12/06 08:18:35;;;;;;;17.13;10.68;;;9.50;60.20;;;;;;5075978;28;20039;-69
2020/12/06 08:21:02;;;;;;;16.98;10.82;;;9.60;59.60;;;;;;5084530;28;20711;-70
2020/12/06 08:23:41;;;;;;;24.40;12.00;;;9.80;59.40;;;;;;5070374;28;20039;-69
2020/12/06 08:26:09;;;;;;;22.92;12.77;;;9.90;59.30;;;;;;5069994;28;20025;-69
2020/12/06 08:28:35;;;;;;;15.18;8.48;;;9.90;58.80;;;;;;5076744;28;20027;-69
2020/12/06 08:31:20;;;;;;;16.38;9.40;;;9.70;60.10;;;;;;5074745;28;20055;-69
2020/12/06 08:33:46;;;;;;;19.02;9.93;;;9.60;60.10;;;;;;5072430;28;20029;-69
2020/12/06 08:36:23;;;;;;;17.63;10.65;;;9.60;61.00;;;;;;5072106;28;20047;-69
2020/12/06 08:38:50;;;;;;;18.02;10.63;;;9.70;59.40;;;;;;5072389;28;20347;-69
2020/12/06 08:41:24;;;;;;;25.60;10.50;;;9.70;59.30;;;;;;5064003;28;20024;-69
2020/12/06 08:44:01;;;;;;;22.55;12.07;;;9.80;59.70;;;;;;5066311;28;20044;-69
2020/12/06 08:46:30;;;;;;;17.58;10.90;;;9.90;59.70;;;;;;5071939;28;20024;-69
2020/12/06 08:49:00;;;;;;;15.50;10.68;;;9.90;59.50;;;;;;5074380;28;20043;-69
2020/12/06 08:51:36;;;;;;;19.58;11.63;;;9.70;60.30;;;;;;5070432;28;20025;-69
2020/12/06 08:54:09;;;;;;;21.65;11.07;;;9.80;59.90;;;;;;5074066;28;20532;-69
2020/12/06 08:56:39;;;;;;;14.75;10.70;;;9.90;59.90;;;;;;5073411;28;20028;-69
2020/12/06 08:59:10;;;;;;;20.48;12.40;;;9.90;59.80;;;;;;5068948;28;20017;-69
2020/12/06 09:01:51;;;;;;;19.73;12.18;;;9.80;60.50;;;;;;5067448;28;20047;-69
2020/12/06 09:04:18;;;;;;;17.55;10.60;;;9.80;60.90;;;;;;5074395;28;20043;-69
2020/12/06 09:06:45;;;;;;;25.40;12.70;;;9.70;61.60;;;;;;5074085;28;20023;-69
2020/12/06 09:09:13;;;;;;;22.73;11.35;;;9.80;60.00;;;;;;5075980;28;20052;-69
2020/12/06 09:11:40;;;;;;;15.48;11.23;;;9.80;60.00;;;;;;5074337;28;20028;-69
2020/12/06 09:14:07;;;;;;;13.65;11.35;;;9.80;61.50;;;;;;5073948;28;20024;-69
2020/12/06 09:16:33;;;;;;;17.92;11.88;;;9.80;61.30;;;;;;5073516;28;20029;-69
2020/12/06 09:19:01;;;;;;;23.10;12.98;;;9.80;60.10;;;;;;5071963;28;20023;-69
2020/12/06 09:21:28;;;;;;;18.83;12.00;;;9.90;61.70;;;;;;5074839;28;20037;-69
2020/12/06 09:23:54;;;;;;;16.58;11.05;;;9.80;61.50;;;;;;5075378;28;20403;-69
2020/12/06 09:26:21;;;;;;;25.27;11.98;;;9.80;61.70;;;;;;5074578;28;20081;-69
2020/12/06 09:28:47;;;;;;;21.08;13.32;;;9.90;60.20;;;;;;5073188;28;20025;-69
2020/12/06 09:31:14;;;;;;;23.95;12.63;;;9.90;60.00;;;;;;5072277;28;20107;-69
2020/12/06 09:33:40;;;;;;;23.48;14.18;;;10.00;60.60;;;;;;5073641;28;20465;-69
2020/12/06 09:36:07;;;;;;;27.38;15.35;;;10.10;60.60;;;;;;5071353;28;20052;-69
2020/12/06 09:38:33;;;;;;;34.25;16.48;;;10.10;60.60;;;;;;5071122;28;20103;-69
2020/12/06 09:41:00;;;;;;;22.55;14.13;;;10.10;61.00;;;;;;5072127;28;20027;-69
2020/12/06 09:43:26;;;;;;;24.02;13.20;;;10.20;60.70;;;;;;5060765;28;20108;-69
2020/12/06 09:45:52;;;;;;;23.50;14.10;;;10.20;60.70;;;;;;5075414;28;20051;-69
2020/12/06 09:48:19;;;;;;;27.23;13.15;;;10.20;60.70;;;;;;5069460;28;20081;-69
2020/12/06 09:50:46;;;;;;;20.88;14.40;;;10.10;61.00;;;;;;5069191;28;20032;-69
2020/12/06 09:53:12;;;;;;;26.52;15.88;;;10.20;61.40;;;;;;5063887;28;20043;-69
2020/12/06 09:55:40;;;;;;;26.58;13.35;;;10.20;61.60;;;;;;5074029;28;20051;-69
2020/12/06 09:58:06;;;;;;;22.38;14.80;;;10.20;61.60;;;;;;5073095;28;20028;-69
2020/12/06 10:00:33;;;;;;;26.67;16.02;;;10.20;61.70;;;;;;5073909;28;20031;-69
2020/12/06 10:02:59;;;;;;;27.88;16.88;;;10.20;61.60;;;;;;5070388;28;20017;-69
2020/12/06 10:05:26;;;;;;;22.67;12.90;;;10.10;61.50;;;;;;5072448;28;20032;-69
2020/12/06 10:07:52;;;;;;;21.80;14.38;;;10.00;61.80;;;;;;5071416;28;20393;-69
2020/12/06 10:10:19;;;;;;;19.83;13.13;;;9.90;62.20;;;;;;5076526;28;20528;-69
2020/12/06 10:12:45;;;;;;;21.20;15.65;;;9.80;61.70;;;;;;5072837;28;20035;-69
2020/12/06 10:15:12;;;;;;;21.73;14.70;;;9.90;62.30;;;;;;5072821;28;20039;-69
2020/12/06 10:17:38;;;;;;;25.83;14.98;;;10.00;62.20;;;;;;5073213;28;20093;-69
2020/12/06 10:20:08;;;;;;;29.80;16.33;;;10.00;61.90;;;;;;5073787;28;20443;-69
2020/12/06 10:22:35;;;;;;;35.72;17.30;;;9.90;62.10;;;;;;5074264;28;20103;-69
2020/12/06 10:25:02;;;;;;;23.08;14.73;;;9.90;62.30;;;;;;5069747;28;20024;-69
2020/12/06 10:27:28;;;;;;;21.55;14.85;;;9.90;62.50;;;;;;5071028;28;20028;-69
2020/12/06 10:29:55;;;;;;;24.45;12.90;;;9.90;62.40;;;;;;5071470;28;20028;-69
2020/12/06 10:32:21;;;;;;;23.95;14.90;;;9.90;62.80;;;;;;5072616;28;20033;-69
2020/12/06 10:34:47;;;;;;;20.75;13.20;;;9.90;62.50;;;;;;5072299;28;20040;-69
2020/12/06 10:37:14;;;;;;;22.33;13.52;;;9.90;62.50;;;;;;5071555;28;20465;-69
2020/12/06 10:39:40;;;;;;;18.85;12.82;;;9.80;63.10;;;;;;5071510;28;20486;-69
2020/12/06 10:42:07;;;;;;;15.48;12.10;;;9.70;63.50;;;;;;5073352;28;20027;-69
2020/12/06 10:44:33;;;;;;;17.92;10.60;;;9.70;63.60;;;;;;5073392;28;20501;-69
2020/12/06 10:47:00;;;;;;;17.27;10.00;;;9.60;63.90;;;;;;5069885;28;20113;-69
2020/12/06 10:49:26;;;;;;;24.42;13.40;;;9.60;63.90;;;;;;5075625;28;20025;-71
2020/12/06 10:51:53;;;;;;;22.75;13.00;;;9.70;62.30;;;;;;5076517;28;20107;-71
2020/12/06 10:54:19;;;;;;;15.45;10.05;;;9.70;62.10;;;;;;5077594;28;20036;-71
2020/12/06 10:56:46;;;;;;;24.13;10.68;;;9.70;63.30;;;;;;5075260;28;20020;-69
2020/12/06 10:59:12;;;;;;;17.30;11.45;;;9.60;63.30;;;;;;5077942;28;20028;-70
2020/12/06 11:01:39;;;;;;;18.52;12.13;;;9.60;62.70;;;;;;5070329;28;20036;-71
2020/12/06 11:04:06;;;;;;;20.55;12.20;;;9.60;62.00;;;;;;5075537;28;20025;-69
2020/12/06 11:06:33;;;;;;;20.23;14.38;;;9.60;62.10;;;;;;5076278;28;20055;-69
2020/12/06 11:09:00;;;;;;;18.58;11.40;;;9.60;62.50;;;;;;5075986;28;20025;-69
2020/12/06 11:11:27;;;;;;;13.27;10.10;;;9.40;63.60;;;;;;5075502;28;20101;-69
2020/12/06 11:13:53;;;;;;;24.20;13.68;;;9.30;64.10;;;;;;5076323;28;20061;-70
2020/12/06 11:16:22;;;;;;;22.15;16.00;;;9.40;62.50;;;;;;5077020;28;20109;-69
2020/12/06 11:18:50;;;;;;;26.20;14.35;;;9.40;62.60;;;;;;5074771;28;20028;-70
2020/12/06 11:21:18;;;;;;;27.52;15.30;;;9.50;62.90;;;;;;5075754;28;20040;-71
2020/12/06 11:23:46;;;;;;;21.52;13.73;;;9.50;63.20;;;;;;5075704;28;20017;-71
2020/12/06 11:26:14;;;;;;;18.60;14.32;;;9.50;63.20;;;;;;5077005;28;20056;-69
2020/12/06 11:28:41;;;;;;;24.40;16.88;;;9.50;63.70;;;;;;5066269;28;20028;-69
2020/12/06 11:31:09;;;;;;;25.98;16.95;;;9.60;63.50;;;;;;5075864;28;20095;-69
2020/12/06 11:33:36;;;;;;;22.05;16.17;;;9.70;64.40;;;;;;5076707;28;20029;-69
2020/12/06 11:36:03;;;;;;;26.98;17.38;;;9.80;64.50;;;;;;5076498;28;20048;-69
2020/12/06 11:38:30;;;;;;;27.00;18.48;;;9.90;64.80;;;;;;5076560;28;20028;-69
2020/12/06 11:40:56;;;;;;;27.40;17.40;;;10.00;65.20;;;;;;5076063;28;20108;-69
2020/12/06 11:43:23;;;;;;;21.98;13.23;;;10.10;65.10;;;;;;5072615;28;20029;-69
2020/12/06 11:45:50;;;;;;;33.47;18.75;;;10.10;66.50;;;;;;5076909;28;20100;-69
2020/12/06 11:48:17;;;;;;;25.83;16.15;;;10.20;65.10;;;;;;5076010;28;20033;-69
2020/12/06 11:50:43;;;;;;;21.65;14.13;;;10.30;65.10;;;;;;5076315;28;20039;-69
2020/12/06 11:53:10;;;;;;;19.08;12.02;;;10.30;66.40;;;;;;5077583;28;20095;-69
2020/12/06 11:55:36;;;;;;;22.02;14.57;;;10.20;66.50;;;;;;5074916;28;20024;-69
2020/12/06 11:58:03;;;;;;;22.90;14.05;;;10.40;65.60;;;;;;5074673;28;20089;-69
2020/12/06 12:00:29;;;;;;;15.70;12.65;;;10.40;64.70;;;;;;5076317;28;20024;-69
2020/12/06 12:02:56;;;;;;;19.23;12.00;;;10.40;63.70;;;;;;5075240;28;20103;-69
2020/12/06 12:05:22;;;;;;;26.00;13.73;;;10.40;64.80;;;;;;5076217;28;20025;-69
2020/12/06 12:07:49;;;;;;;22.98;12.32;;;10.40;64.00;;;;;;5075085;28;20481;-69
2020/12/06 12:10:16;;;;;;;19.48;11.82;;;10.30;64.90;;;;;;5075114;28;20067;-69
2020/12/06 12:12:43;;;;;;;19.30;12.50;;;10.30;64.20;;;;;;5075559;28;20032;-69
2020/12/06 12:15:10;;;;;;;17.13;11.40;;;10.30;64.70;;;;;;5073488;28;20463;-69
2020/12/06 12:17:37;;;;;;;22.17;13.82;;;10.20;64.90;;;;;;5075328;28;20035;-69
2020/12/06 12:20:05;;;;;;;26.10;13.82;;;10.30;63.60;;;;;;5075330;28;20032;-69
2020/12/06 12:22:32;;;;;;;22.73;14.40;;;10.30;63.70;;;;;;5074085;28;20052;-69
2020/12/06 12:24:59;;;;;;;24.95;14.40;;;10.40;64.20;;;;;;5074641;28;20025;-69
2020/12/06 12:27:25;;;;;;;16.60;11.55;;;10.40;64.10;;;;;;5074844;28;20035;-69
2020/12/06 12:29:52;;;;;;;26.20;17.77;;;10.20;66.20;;;;;;5075426;28;20033;-69
2020/12/06 12:32:18;;;;;;;26.02;15.57;;;10.20;64.40;;;;;;5074621;28;20058;-69
2020/12/06 12:34:44;;;;;;;16.65;13.40;;;10.30;64.30;;;;;;5076367;28;20024;-69
2020/12/06 12:37:14;;;;;;;24.85;13.95;;;10.20;65.70;;;;;;5069937;28;20075;-69